Time;durP1;ratioP1;P1;durP2;ratioP2;P2;SDS_P1;SDS_P2;PMS_P1;PMS_P2;Temp;Humidity;BMP_temperature;BMP_pressure;BME280_temperature;BME280_humidity;BME280_pressure;Samples;Min_cycle;Max_cycle;Signal;HPM_P1;HPM_P2
2022/05/22 00:03:31;;;;;;;10.73;3.70;;;;;;;11.00;83.52;99246.34;8204136;28;20428;-71
2022/05/22 00:07:32;;;;;;;6.20;3.72;;;;;;;11.00;84.07;99254.44;8204581;28;20509;-72
2022/05/22 00:11:33;;;;;;;14.57;4.47;;;;;;;10.99;83.89;99247.47;8202337;29;20054;-71
2022/05/22 00:15:37;;;;;;;12.25;4.38;;;;;;;11.02;84.60;99247.63;8202048;28;20761;-72
2022/05/22 00:19:39;;;;;;;9.85;4.15;;;;;;;11.06;84.85;99249.72;8204193;28;20051;-72
2022/05/22 00:23:40;;;;;;;6.07;3.58;;;;;;;11.12;85.41;99246.56;8203765;28;20085;-72
2022/05/22 00:27:43;;;;;;;13.18;4.45;;;;;;;11.08;85.54;99245.59;8201576;28;20055;-71
2022/05/22 00:31:45;;;;;;;14.63;4.30;;;;;;;11.05;85.19;99253.53;8186225;29;20153;-72
2022/05/22 00:35:46;;;;;;;10.05;4.35;;;;;;;11.02;85.37;99246.84;8201503;28;20125;-72
2022/05/22 00:39:47;;;;;;;9.93;3.72;;;;;;;11.05;85.29;99245.44;8203690;28;20139;-72
2022/05/22 00:43:55;;;;;;;10.52;3.85;;;;;;;10.95;85.41;99235.66;8202986;28;20109;-72
2022/05/22 00:47:56;;;;;;;14.70;4.40;;;;;;;10.87;85.35;99239.09;8216980;28;20051;-72
2022/05/22 00:52:12;;;;;;;11.18;3.78;;;;;;;10.82;85.36;99241.94;8202631;28;20039;-72
2022/05/22 00:56:18;;;;;;;9.55;4.20;;;;;;;10.75;85.48;99241.53;8203261;28;20059;-73
2022/05/22 01:00:23;;;;;;;9.50;3.85;;;;;;;10.72;85.61;99242.16;8192222;28;20051;-73
2022/05/22 01:04:26;;;;;;;7.22;3.33;;;;;;;10.70;85.20;99238.97;8202261;28;20055;-72
2022/05/22 01:08:28;;;;;;;8.45;3.65;;;;;;;10.65;85.09;99252.59;8202893;28;20427;-73
2022/05/22 01:12:29;;;;;;;13.13;3.78;;;;;;;10.58;85.05;99243.00;8202399;28;20078;-71
2022/05/22 01:16:32;;;;;;;11.18;3.40;;;;;;;10.59;85.35;99255.41;8202194;28;20047;-71
2022/05/22 01:20:32;;;;;;;9.85;3.50;;;;;;;10.52;85.38;99244.22;8202623;28;20082;-72
2022/05/22 01:24:34;;;;;;;10.43;3.42;;;;;;;10.45;85.33;99238.44;8215857;28;20054;-72
2022/05/22 01:28:35;;;;;;;8.85;3.58;;;;;;;10.42;85.50;99238.25;8201723;28;20051;-73
2022/05/22 01:32:37;;;;;;;14.15;3.78;;;;;;;10.33;85.44;99246.28;8201998;28;20047;-71
2022/05/22 01:36:38;;;;;;;10.13;3.05;;;;;;;10.25;85.36;99232.72;8202578;28;20488;-71
2022/05/22 01:40:40;;;;;;;8.77;3.38;;;;;;;10.14;85.52;99221.31;8200126;28;20058;-72
2022/05/22 01:44:40;;;;;;;8.98;3.45;;;;;;;10.08;85.54;99233.31;8199776;29;20055;-72
2022/05/22 01:48:41;;;;;;;8.75;3.95;;;;;;;10.05;85.80;99233.88;8201393;28;20083;-72
2022/05/22 01:52:43;;;;;;;9.00;4.18;;;;;;;10.03;86.27;99236.09;8201730;28;20558;-72
2022/05/22 01:56:47;;;;;;;8.98;4.93;;;;;;;9.99;87.10;99230.50;8201451;28;20138;-72
2022/05/22 02:00:48;;;;;;;9.88;4.90;;;;;;;10.00;87.33;99221.31;8200374;28;20051;-72
2022/05/22 02:04:49;;;;;;;7.72;4.88;;;;;;;9.98;87.38;99222.72;8200092;28;20503;-72
2022/05/22 02:08:50;;;;;;;13.63;5.60;;;;;;;9.94;87.99;99216.34;8201140;28;20051;-71
2022/05/22 02:12:53;;;;;;;11.90;4.80;;;;;;;9.91;88.60;99211.53;8201271;28;20058;-72
2022/05/22 02:16:54;;;;;;;11.85;5.30;;;;;;;9.87;89.32;99215.94;8200495;28;20084;-72
2022/05/22 02:20:56;;;;;;;11.82;4.82;;;;;;;9.84;89.00;99217.31;8199594;28;20525;-72
2022/05/22 02:24:56;;;;;;;11.90;5.07;;;;;;;9.85;89.23;99212.72;8200856;28;20058;-72
2022/05/22 02:28:58;;;;;;;16.33;5.65;;;;;;;9.80;89.61;99215.53;8200685;28;20105;-71
2022/05/22 02:32:59;;;;;;;17.60;5.93;;;;;;;9.78;89.58;99217.75;8200303;28;20106;-71
2022/05/22 02:37:00;;;;;;;11.88;5.57;;;;;;;9.70;89.86;99217.34;8200124;28;20419;-72
2022/05/22 02:41:12;;;;;;;10.23;5.70;;;;;;;9.64;90.39;99229.31;8199744;28;20055;-71
2022/05/22 02:45:15;;;;;;;13.80;5.82;;;;;;;9.61;90.87;99219.16;8199779;28;20059;-72
2022/05/22 02:49:16;;;;;;;10.45;5.05;;;;;;;9.64;91.67;99218.53;8199671;28;20063;-70
2022/05/22 02:53:17;;;;;;;10.55;5.43;;;;;;;9.58;91.59;99208.13;8200143;28;20051;-72
2022/05/22 02:57:21;;;;;;;10.32;5.72;;;;;;;9.60;91.59;99228.31;8199624;28;20158;-72
2022/05/22 03:01:22;;;;;;;16.00;5.10;;;;;;;9.57;91.54;99218.13;8180591;28;20059;-72
2022/05/22 03:05:26;;;;;;;14.05;5.40;;;;;;;9.55;91.41;99220.34;8199856;28;20626;-72
2022/05/22 03:09:27;;;;;;;13.55;4.72;;;;;;;9.64;91.20;99207.75;8213697;28;20503;-72
2022/05/22 03:13:28;;;;;;;9.27;5.20;;;;;;;9.69;90.61;99221.13;8201509;28;20082;-73
2022/05/22 03:17:29;;;;;;;12.90;4.60;;;;;;;9.73;90.42;99216.72;8206285;28;20047;-72
2022/05/22 03:21:30;;;;;;;13.45;4.80;;;;;;;9.81;89.67;99217.94;8182787;28;20083;-72
2022/05/22 03:25:31;;;;;;;9.32;4.18;;;;;;;9.88;89.20;99217.53;8195171;28;20043;-73
2022/05/22 03:29:32;;;;;;;13.55;4.13;;;;;;;9.97;88.64;99221.13;8184506;28;20461;-72
2022/05/22 03:33:33;;;;;;;11.75;3.95;;;;;;;10.04;88.18;99226.91;8175169;29;20054;-72
2022/05/22 03:37:34;;;;;;;8.68;3.70;;;;;;;10.16;87.58;99235.31;8174095;28;20606;-73
2022/05/22 03:41:38;;;;;;;10.23;4.00;;;;;;;10.25;87.27;99228.13;8183295;28;20111;-73
2022/05/22 03:45:40;;;;;;;15.27;3.92;;;;;;;10.29;87.06;99223.69;8189079;28;20095;-72
2022/05/22 03:49:41;;;;;;;13.07;3.90;;;;;;;10.34;86.81;99218.19;8178019;29;20101;-72
2022/05/22 03:53:42;;;;;;;9.45;4.18;;;;;;;10.36;86.29;99213.28;8178793;28;20051;-72
2022/05/22 03:57:49;;;;;;;11.20;3.50;;;;;;;10.38;86.09;99221.88;8212571;28;20079;-72
2022/05/22 04:01:50;;;;;;;9.00;3.63;;;;;;;10.41;85.90;99221.28;8173872;28;20059;-74
2022/05/22 04:05:51;;;;;;;7.57;3.03;;;;;;;10.45;85.81;99214.16;8177803;29;20051;-72
2022/05/22 04:09:52;;;;;;;12.52;3.28;;;;;;;10.57;85.39;99213.63;8180412;28;20082;-73
2022/05/22 04:13:53;;;;;;;15.88;3.38;;;;;;;10.69;85.21;99215.75;8177158;28;20117;-72
2022/05/22 04:17:54;;;;;;;9.45;4.55;;;;;;;10.83;84.10;99216.50;8191413;28;20078;-71
2022/05/22 04:21:55;;;;;;;10.10;3.40;;;;;;;10.87;84.10;99217.50;8178173;28;20047;-72
2022/05/22 04:25:59;;;;;;;15.60;3.97;;;;;;;10.92;83.78;99225.47;8196796;28;20515;-71
2022/05/22 04:30:00;;;;;;;9.40;3.20;;;;;;;10.96;83.18;99223.75;8204404;28;20078;-71
2022/05/22 04:34:01;;;;;;;6.22;2.65;;;;;;;10.93;83.16;99227.06;8205062;28;20051;-72
2022/05/22 04:38:05;;;;;;;10.45;2.63;;;;;;;10.97;83.18;99219.94;8169762;29;20110;-72
2022/05/22 04:42:06;;;;;;;11.27;2.53;;;;;;;11.00;82.90;99219.31;8209184;28;20499;-71
2022/05/22 04:46:08;;;;;;;11.68;2.92;;;;;;;11.03;82.64;99218.72;8204696;28;20079;-72
2022/05/22 04:50:11;;;;;;;10.25;2.50;;;;;;;11.07;82.11;99211.56;8222539;28;20054;-71
2022/05/22 04:54:12;;;;;;;11.30;2.60;;;;;;;11.15;81.65;99208.13;8208073;28;20047;-72
2022/05/22 04:58:16;;;;;;;9.50;2.55;;;;;;;11.19;81.10;99209.09;8203504;28;20118;-72
2022/05/22 05:02:17;;;;;;;4.93;2.05;;;;;;;11.34;80.40;99200.59;8204039;28;20058;-72
2022/05/22 05:06:19;;;;;;;11.98;2.40;;;;;;;11.48;79.96;99215.91;8217194;28;20086;-72
2022/05/22 05:10:20;;;;;;;8.20;2.25;;;;;;;11.63;78.87;99213.59;8204088;28;20051;-72
2022/05/22 05:14:21;;;;;;;8.77;2.25;;;;;;;11.83;77.27;99217.69;8208005;28;20046;-71
2022/05/22 05:18:22;;;;;;;5.97;2.65;;;;;;;11.91;76.75;99214.19;8206425;28;20048;-72
2022/05/22 05:22:23;;;;;;;11.55;2.30;;;;;;;11.96;76.38;99227.56;8227310;28;20066;-72
2022/05/22 05:26:24;;;;;;;7.70;2.33;;;;;;;12.00;76.10;99217.69;8224656;28;20048;-73
2022/05/22 05:30:25;;;;;;;11.02;2.67;;;;;;;11.93;76.03;99222.81;8203632;28;20134;-72
2022/05/22 05:34:26;;;;;;;9.00;2.30;;;;;;;11.97;76.35;99221.06;8216301;28;20051;-72
2022/05/22 05:38:28;;;;;;;8.65;2.08;;;;;;;12.04;76.38;99224.09;8201610;28;20059;-71
2022/05/22 05:42:33;;;;;;;10.60;2.38;;;;;;;12.11;75.85;99221.72;8220273;28;20050;-72
2022/05/22 05:46:35;;;;;;;7.28;2.00;;;;;;;12.07;75.04;99217.25;8247163;28;20174;-71
2022/05/22 05:50:37;;;;;;;5.93;1.80;;;;;;;12.08;75.64;99225.06;8200355;28;20098;-72
2022/05/22 05:54:38;;;;;;;10.93;2.10;;;;;;;12.15;75.79;99220.00;8207216;28;20051;-71
2022/05/22 05:58:39;;;;;;;9.85;2.45;;;;;;;12.31;74.21;99219.53;8229625;28;20054;-72
2022/05/22 06:02:39;;;;;;;10.02;1.80;;;;;;;12.34;74.02;99218.88;8202632;28;20047;-72
2022/05/22 06:06:41;;;;;;;11.40;1.75;;;;;;;12.42;73.65;99223.53;8201175;28;20055;-72
2022/05/22 06:10:41;;;;;;;8.30;1.60;;;;;;;12.43;73.00;99222.38;8202329;28;20081;-71
2022/05/22 06:14:43;;;;;;;11.65;1.90;;;;;;;12.42;73.93;99223.53;8214977;28;20051;-73
2022/05/22 06:18:43;;;;;;;8.77;1.85;;;;;;;12.59;73.61;99237.06;8215035;28;20055;-73
2022/05/22 06:22:48;;;;;;;7.63;1.73;;;;;;;12.78;72.60;99234.84;8202816;28;20059;-72
2022/05/22 06:26:52;;;;;;;11.90;1.75;;;;;;;12.74;71.72;99236.59;8208919;28;20075;-72
2022/05/22 06:30:56;;;;;;;9.52;1.85;;;;;;;12.69;71.88;99239.44;8198866;28;20498;-72
2022/05/22 06:34:58;;;;;;;13.27;2.17;;;;;;;12.96;71.90;99239.13;8213026;28;20373;-72
2022/05/22 06:43:18;;;;;;;;;;;;;;;13.11;70.92;99241.34;8211921;28;20058;-72
2022/05/22 06:47:20;;;;;;;6.78;1.75;;;;;;;13.28;70.79;99239.72;8209797;28;19981;-72
2022/05/22 06:51:20;;;;;;;13.82;1.83;;;;;;;13.60;69.77;99241.88;8214098;28;20051;-72
2022/05/22 06:55:22;;;;;;;12.48;1.52;;;;;;;13.79;68.16;99245.00;8197987;28;20053;-71
2022/05/22 06:59:24;;;;;;;7.53;1.90;;;;;;;13.94;67.62;99241.72;8214090;28;20479;-72
2022/05/22 07:03:25;;;;;;;5.43;1.70;;;;;;;14.06;67.54;99237.53;8201015;28;20078;-73
2022/05/22 07:07:27;;;;;;;8.07;1.52;;;;;;;14.19;66.58;99239.19;8167091;28;20431;-72
2022/05/22 07:11:40;;;;;;;6.30;1.50;;;;;;;14.29;66.22;99236.88;8214851;28;20051;-72
2022/05/22 07:15:41;;;;;;;12.18;1.50;;;;;;;14.43;64.79;99231.25;8169473;29;20106;-72
2022/05/22 07:19:45;;;;;;;5.15;1.33;;;;;;;14.39;63.87;99230.28;8177723;28;20385;-72
2022/05/22 07:23:46;;;;;;;5.07;1.30;;;;;;;14.35;64.35;99229.34;8200135;28;20480;-72
2022/05/22 07:27:47;;;;;;;4.15;1.10;;;;;;;14.53;64.39;99225.41;8193561;28;20510;-72
2022/05/22 07:31:48;;;;;;;8.10;1.40;;;;;;;14.57;64.32;99237.19;8206524;28;20051;-73
2022/05/22 07:35:57;;;;;;;4.95;1.30;;;;;;;14.58;64.30;99244.22;8200820;28;20071;-73
2022/05/22 07:39:58;;;;;;;9.20;2.03;;;;;;;14.62;63.99;99245.16;8197599;28;20415;-72
2022/05/22 07:43:59;;;;;;;6.22;1.00;;;;;;;14.35;63.28;99223.91;8220371;28;20414;-72
2022/05/22 07:48:00;;;;;;;7.65;1.25;;;;;;;14.20;64.11;99221.78;8220803;28;20074;-73
2022/05/22 07:52:07;;;;;;;4.35;1.10;;;;;;;14.14;65.05;99228.50;8229853;28;20526;-73
2022/05/22 07:56:08;;;;;;;4.68;1.38;;;;;;;14.18;64.83;99219.38;8195276;29;20488;-72
2022/05/22 08:00:11;;;;;;;8.13;1.52;;;;;;;14.15;64.44;99224.69;8200664;28;20055;-72
2022/05/22 08:04:12;;;;;;;4.45;1.00;;;;;;;14.33;64.85;99209.84;8225372;28;20137;-73
2022/05/22 08:08:13;;;;;;;3.97;1.15;;;;;;;14.60;64.28;99198.47;8250162;28;20134;-72
2022/05/22 08:12:14;;;;;;;3.90;1.20;;;;;;;14.82;63.49;99201.97;8232204;28;20059;-72
2022/05/22 08:16:15;;;;;;;5.28;1.25;;;;;;;15.19;62.95;99192.78;8234858;28;20055;-72
2022/05/22 08:20:18;;;;;;;4.97;1.58;;;;;;;15.29;62.08;99197.00;8228786;28;20075;-72
2022/05/22 08:24:21;;;;;;;8.55;1.80;;;;;;;15.39;61.91;99191.91;8203200;28;20491;-71
2022/05/22 08:28:22;;;;;;;6.25;1.40;;;;;;;15.35;61.28;99191.00;8213324;28;20050;-73
2022/05/22 08:32:23;;;;;;;5.28;1.20;;;;;;;15.19;62.13;99212.63;8204407;28;20404;-73
2022/05/22 08:36:24;;;;;;;7.55;1.20;;;;;;;14.91;61.70;99202.69;8180612;28;20055;-72
2022/05/22 08:40:31;;;;;;;3.78;1.10;;;;;;;14.60;63.16;99195.75;8193986;28;20377;-72
2022/05/22 08:44:35;;;;;;;2.90;0.80;;;;;;;14.94;62.65;99196.56;8188673;28;20055;-72
2022/05/22 08:49:17;;;;;;;5.43;1.20;;;;;;;15.75;59.13;99193.13;8191122;28;20044;-71
2022/05/22 08:53:28;;;;;;;6.05;1.10;;;;;;;15.85;58.83;99192.66;8071727;29;20053;-71
2022/05/22 09:02:33;;;;;;;4.15;1.00;;;;;;;15.21;58.71;99190.53;8042689;29;20371;-72
2022/05/22 09:06:45;;;;;;;2.30;1.00;;;;;;;14.90;59.64;99203.81;8040844;29;20486;-71
2022/05/22 09:11:11;;;;;;;5.65;1.42;;;;;;;14.78;60.56;99205.38;8006315;29;20517;-71
2022/05/22 09:15:23;;;;;;;5.13;1.00;;;;;;;14.74;61.14;99215.31;7996774;29;20061;-72
2022/05/22 09:19:38;;;;;;;5.88;1.13;;;;;;;14.79;61.65;99219.75;8011005;29;20062;-72
2022/05/22 09:23:56;;;;;;;3.15;0.98;;;;;;;14.82;61.90;99221.00;8009403;29;20106;-72
2022/05/22 09:28:15;;;;;;;5.25;1.23;;;;;;;14.73;61.99;99219.16;8011745;29;20083;-72
2022/05/22 09:32:29;;;;;;;9.20;1.60;;;;;;;15.06;60.74;99215.66;8040524;29;20446;-72
2022/05/22 09:36:57;;;;;;;4.57;1.20;;;;;;;15.58;59.30;99216.72;8048920;29;20052;-71
2022/05/22 09:41:07;;;;;;;5.95;1.48;;;;;;;15.76;57.95;99211.03;8134513;29;20477;-72
2022/05/22 09:45:47;;;;;;;4.18;1.00;;;;;;;15.71;58.62;99213.97;8131906;29;20048;-72
2022/05/22 09:50:00;;;;;;;;;;;;;;;15.65;58.35;99215.34;8136511;29;20134;-72
2022/05/22 09:54:27;;;;;;;4.03;1.00;;;;;;;16.13;58.22;99215.31;8178152;28;19923;-72
2022/05/22 09:58:40;;;;;;;4.88;1.10;;;;;;;16.63;55.92;99195.84;8179862;29;20496;-72
2022/05/22 10:03:09;;;;;;;3.53;1.05;;;;;;;16.47;55.12;99198.47;8183356;28;20044;-71
2022/05/22 10:07:19;;;;;;;7.05;1.10;;;;;;;16.24;55.88;99204.75;8177178;29;20049;-72
2022/05/22 10:11:41;;;;;;;4.55;1.40;;;;;;;16.18;56.31;99200.69;8212318;28;20480;-72
2022/05/22 10:15:59;;;;;;;5.53;1.38;;;;;;;17.02;56.10;99196.94;8184673;29;20134;-72
2022/05/22 10:20:31;;;;;;;4.95;1.00;;;;;;;17.81;52.40;99206.00;8176701;29;20127;-72
2022/05/22 10:24:44;;;;;;;4.38;0.98;;;;;;;17.73;52.09;99206.94;8183259;28;20456;-72
2022/05/22 10:28:55;;;;;;;5.97;1.50;;;;;;;17.49;52.47;99220.75;8173769;28;20086;-72
2022/05/22 10:33:22;;;;;;;6.22;1.02;;;;;;;17.43;53.03;99222.16;8255651;28;20046;-71
2022/05/22 10:37:32;;;;;;;3.80;1.38;;;;;;;17.75;53.36;99229.25;8101611;29;20060;-72
2022/05/22 10:46:01;;;;;;;3.45;1.10;;;;;;;17.12;53.81;99234.63;8101453;29;20045;-72
2022/05/22 10:50:16;;;;;;;4.05;1.20;;;;;;;16.58;54.22;99230.69;8101571;29;20064;-73
2022/05/22 10:54:25;;;;;;;5.32;1.05;;;;;;;16.13;56.06;99226.22;8098694;29;20059;-71
2022/05/22 10:58:32;;;;;;;5.40;1.23;;;;;;;16.22;56.67;99229.63;8062736;29;20064;-72
2022/05/22 11:02:33;;;;;;;5.47;1.20;;;;;;;16.59;56.03;99226.88;8088669;29;20617;-71
2022/05/22 11:06:37;;;;;;;5.35;1.35;;;;;;;16.82;55.07;99219.72;8069766;29;20623;-71
2022/05/22 11:10:38;;;;;;;3.22;1.10;;;;;;;16.42;55.34;99223.25;8070318;29;20525;-72
2022/05/22 11:14:40;;;;;;;5.30;1.30;;;;;;;16.09;56.65;99219.88;8149926;29;20086;-72
2022/05/22 11:18:45;;;;;;;4.03;1.10;;;;;;;16.09;56.88;99233.50;8169973;28;20476;-72
2022/05/22 11:22:58;;;;;;;12.82;1.30;;;;;;;16.57;54.99;99216.25;8182914;28;20091;-72
2022/05/22 11:27:12;;;;;;;6.07;1.10;;;;;;;16.90;54.89;99221.53;8173980;28;20058;-72
2022/05/22 11:31:30;;;;;;;4.43;1.27;;;;;;;16.95;54.19;99224.00;8188278;28;20059;-72
2022/05/22 11:35:38;;;;;;;5.38;1.35;;;;;;;16.97;55.11;99221.72;8192099;28;20539;-73
2022/05/22 11:39:42;;;;;;;5.15;1.20;;;;;;;17.21;53.39;99209.88;8181488;28;20047;-72
2022/05/22 11:43:46;;;;;;;4.13;1.20;;;;;;;17.31;52.70;99210.16;8184381;28;20039;-73
2022/05/22 11:47:56;;;;;;;3.78;1.25;;;;;;;17.70;52.28;99204.94;8187103;28;20048;-72
2022/05/22 11:52:00;;;;;;;4.07;1.00;;;;;;;17.96;51.78;99202.44;8186339;28;20107;-72
2022/05/22 11:56:19;;;;;;;3.35;1.35;;;;;;;17.34;50.31;99207.91;8208312;28;20044;-72
2022/05/22 12:00:49;;;;;;;16.48;2.40;;;;;;;17.18;51.56;99200.44;8157171;29;20131;-72
2022/05/22 12:04:53;;;;;;;7.63;1.40;;;;;;;17.27;51.89;99198.38;8179906;28;20076;-72
2022/05/22 12:09:08;;;;;;;12.05;2.17;;;;;;;17.26;52.49;99191.31;8175108;29;20445;-72
2022/05/22 12:13:15;;;;;;;6.05;1.00;;;;;;;17.03;52.32;99198.50;8153481;29;20063;-72
2022/05/22 12:17:42;;;;;;;10.05;2.60;;;;;;;16.88;53.38;99193.78;8177366;28;20433;-72
2022/05/22 12:22:01;;;;;;;6.40;2.15;;;;;;;16.86;54.02;99198.81;8181815;29;20063;-72
2022/05/22 12:26:06;;;;;;;4.80;1.50;;;;;;;16.76;53.67;99196.59;8203164;28;20047;-72
2022/05/22 12:30:23;;;;;;;3.80;1.80;;;;;;;16.82;54.35;99197.91;8186197;28;20506;-72
2022/05/22 12:34:35;;;;;;;4.93;1.27;;;;;;;17.39;54.13;99188.53;8195501;28;20088;-72
2022/05/22 12:38:43;;;;;;;11.50;1.50;;;;;;;18.41;52.17;99173.75;8195517;28;20457;-72
2022/05/22 12:42:56;;;;;;;4.90;1.27;;;;;;;18.62;49.38;99174.22;8183841;29;20500;-73
2022/05/22 12:46:58;;;;;;;6.03;1.10;;;;;;;18.84;47.34;99176.22;8201404;28;20649;-72
2022/05/22 12:51:31;;;;;;;2.83;0.88;;;;;;;19.19;47.48;99164.38;8191469;28;20070;-72
2022/05/22 12:55:35;;;;;;;3.72;1.10;;;;;;;19.61;44.69;99169.81;8188752;28;20060;-73
2022/05/22 12:59:50;;;;;;;6.95;1.25;;;;;;;19.31;45.03;99164.16;8218505;28;20054;-73
2022/05/22 13:03:53;;;;;;;4.57;1.27;;;;;;;18.88;46.46;99166.13;8185263;28;20535;-73
2022/05/22 13:07:57;;;;;;;5.07;1.20;;;;;;;18.68;47.12;99172.78;8188038;28;20411;-73
2022/05/22 13:12:10;;;;;;;4.28;1.13;;;;;;;18.47;47.19;99172.31;8188592;28;20444;-72
2022/05/22 13:16:11;;;;;;;3.45;1.20;;;;;;;18.94;46.51;99163.88;8198259;28;20043;-73
2022/05/22 13:20:35;;;;;;;6.50;1.58;;;;;;;19.14;45.65;99172.88;8180907;28;20471;-72
2022/05/22 13:24:38;;;;;;;3.17;1.40;;;;;;;19.30;44.75;99159.84;8192701;28;20075;-72
2022/05/22 13:28:42;;;;;;;2.50;0.90;;;;;;;19.27;45.99;99160.59;8193499;29;20392;-74
2022/05/22 13:32:51;;;;;;;3.42;0.98;;;;;;;19.03;47.10;99160.94;8186386;28;20070;-74
2022/05/22 13:36:56;;;;;;;4.57;1.10;;;;;;;18.76;46.66;99152.63;8195594;28;20126;-73
2022/05/22 13:47:26;;;;;;;3.22;1.20;;;;;;;21.36;41.95;99136.75;8181724;28;20126;-74
2022/05/22 13:55:58;;;;;;;4.32;1.00;;;;;;;21.45;39.34;99134.50;8171396;28;20059;-72
2022/05/22 13:59:59;;;;;;;7.07;1.40;;;;;;;20.47;42.13;99145.97;8198212;28;20049;-73
2022/05/22 14:04:06;;;;;;;4.18;1.23;;;;;;;20.01;43.30;99139.06;8178903;28;20051;-73
2022/05/22 14:08:16;;;;;;;4.00;1.10;;;;;;;19.44;44.93;99143.66;8187127;28;20430;-73
2022/05/22 14:12:28;;;;;;;4.80;1.00;;;;;;;18.93;45.11;99146.69;8190813;29;20051;-74
2022/05/22 14:16:34;;;;;;;5.18;1.20;;;;;;;18.63;46.54;99148.44;8193171;28;20044;-75
2022/05/22 14:20:41;;;;;;;9.13;1.75;;;;;;;18.29;46.67;99133.69;8185649;28;20485;-74
2022/05/22 14:24:54;;;;;;;7.38;1.27;;;;;;;18.01;47.52;99144.78;8176629;29;20051;-72
2022/05/22 14:28:55;;;;;;;6.45;1.20;;;;;;;17.74;48.02;99145.72;8187803;28;20130;-73
2022/05/22 14:33:07;;;;;;;6.28;1.30;;;;;;;17.55;48.77;99140.97;8172573;29;20039;-73
2022/05/22 14:37:08;;;;;;;3.30;1.08;;;;;;;17.75;48.77;99136.38;8182837;28;20044;-72
2022/05/22 14:41:15;;;;;;;2.97;1.15;;;;;;;18.36;48.34;99139.28;8178173;28;20062;-75
2022/05/22 14:45:24;;;;;;;4.82;1.80;;;;;;;18.65;47.76;99140.69;8176105;28;20107;-72
2022/05/22 14:49:33;;;;;;;4.82;1.30;;;;;;;18.58;47.95;99135.06;8177140;28;20082;-73
2022/05/22 14:53:39;;;;;;;8.85;1.65;;;;;;;18.58;48.48;99134.28;8198498;28;20126;-74
2022/05/22 14:57:46;;;;;;;5.80;1.10;;;;;;;20.67;45.07;99122.69;8203038;28;20125;-73
2022/05/22 15:01:50;;;;;;;5.88;1.13;;;;;;;23.25;39.80;99127.50;8254614;28;20200;-73
2022/05/22 15:05:53;;;;;;;6.22;1.40;;;;;;;22.97;39.34;99118.00;8229201;28;20047;-73
2022/05/22 15:09:57;;;;;;;3.42;1.38;;;;;;;21.56;40.85;99122.78;8228499;28;20407;-73
2022/05/22 15:14:06;;;;;;;5.93;1.42;;;;;;;20.42;43.37;99131.81;8253516;28;20507;-73
2022/05/22 15:18:14;;;;;;;2.85;1.25;;;;;;;19.53;45.30;99136.00;8226522;28;20042;-73
2022/05/22 15:27:05;;;;;;;6.93;1.40;;;;;;;21.21;43.10;99129.56;8228919;28;20053;-73
2022/05/22 15:31:10;;;;;;;3.92;1.42;;;;;;;21.97;41.61;99121.53;8169811;28;20051;-73
2022/05/22 15:35:13;;;;;;;6.38;1.25;;;;;;;21.90;42.05;99126.94;8191351;29;20051;-73
2022/05/22 15:39:31;;;;;;;3.83;1.20;;;;;;;21.77;42.97;99122.94;8195644;28;20051;-74
2022/05/22 15:43:37;;;;;;;4.93;1.23;;;;;;;21.42;43.45;99113.25;8196427;29;20048;-74
2022/05/22 15:47:38;;;;;;;7.82;2.15;;;;;;;21.71;42.63;99116.22;8193535;28;20050;-74
2022/05/22 15:51:42;;;;;;;2.83;1.23;;;;;;;21.70;42.42;99117.38;8172834;28;20044;-74
2022/05/22 15:55:44;;;;;;;4.05;1.40;;;;;;;21.60;43.09;99109.84;8196529;28;20127;-74
2022/05/22 15:59:47;;;;;;;5.40;1.40;;;;;;;21.57;41.58;99102.38;8175428;28;20048;-74
2022/05/22 16:03:50;;;;;;;3.58;1.13;;;;;;;21.20;41.07;99106.03;8153603;29;20062;-74
2022/05/22 16:07:53;;;;;;;6.32;1.58;;;;;;;20.62;42.53;99103.84;8180160;28;20079;-74
2022/05/22 16:11:54;;;;;;;5.15;1.35;;;;;;;20.33;43.34;99101.94;8176447;28;20562;-75
2022/05/22 16:15:56;;;;;;;4.40;1.88;;;;;;;20.20;43.36;99108.78;8179673;28;20139;-73
2022/05/22 16:20:00;;;;;;;6.88;1.95;;;;;;;19.77;44.90;99096.47;8204163;28;20045;-74
2022/05/22 16:24:01;;;;;;;4.75;1.65;;;;;;;19.67;44.56;99097.88;8196140;28;20397;-75
2022/05/22 16:28:06;;;;;;;6.53;1.40;;;;;;;19.55;44.71;99106.31;8198381;28;20043;-74
2022/05/22 16:32:10;;;;;;;5.15;1.40;;;;;;;19.67;44.21;99102.59;8176774;28;20082;-73
2022/05/22 16:36:12;;;;;;;3.38;1.20;;;;;;;19.39;44.10;99113.84;8180481;28;20135;-73
2022/05/22 16:40:13;;;;;;;5.60;1.40;;;;;;;18.97;44.94;99124.88;8174568;29;20059;-75
2022/05/22 16:44:14;;;;;;;4.75;1.35;;;;;;;18.60;45.22;99127.31;8192315;28;20153;-75
2022/05/22 16:56:55;;;;;;;5.93;1.58;;;;;;;17.90;48.30;99132.81;8177765;28;20051;-73
2022/05/22 17:01:00;;;;;;;5.20;1.75;;;;;;;17.86;49.62;99126.50;8175028;28;20047;-74
2022/05/22 17:05:01;;;;;;;6.40;2.10;;;;;;;17.59;51.27;99132.84;8189415;28;20527;-73
2022/05/22 17:09:06;;;;;;;6.20;1.55;;;;;;;17.28;52.42;99134.47;8181549;28;20419;-73
2022/05/22 17:13:08;;;;;;;7.80;1.77;;;;;;;17.06;53.24;99135.06;8190209;28;20574;-74
2022/05/22 17:17:10;;;;;;;8.57;1.80;;;;;;;16.78;53.96;99145.22;8201787;28;20458;-73
2022/05/22 17:21:11;;;;;;;3.90;1.50;;;;;;;16.70;54.92;99137.97;8215298;28;20518;-74
2022/05/22 17:25:16;;;;;;;5.78;1.83;;;;;;;16.74;54.84;99141.59;8201781;28;20567;-73
2022/05/22 17:29:18;;;;;;;5.57;1.60;;;;;;;16.63;54.80;99140.50;8167405;29;20090;-74
2022/05/22 17:33:19;;;;;;;2.97;1.38;;;;;;;16.66;54.97;99128.88;8198977;28;20053;-73
2022/05/22 17:37:26;;;;;;;5.28;1.98;;;;;;;16.75;55.40;99135.00;8218412;28;20546;-72
2022/05/22 17:41:30;;;;;;;6.75;2.00;;;;;;;16.55;55.32;99144.16;8154699;29;20051;-74
2022/05/22 17:45:34;;;;;;;4.13;1.63;;;;;;;16.35;55.79;99135.81;8198906;29;20081;-73
2022/05/22 17:49:36;;;;;;;3.85;2.10;;;;;;;16.30;56.23;99133.31;8202795;28;20406;-73
2022/05/22 17:53:45;;;;;;;4.15;1.95;;;;;;;16.32;56.54;99125.59;8205841;28;20403;-73
2022/05/22 17:57:46;;;;;;;6.53;1.60;;;;;;;16.14;56.90;99135.19;8202580;28;20047;-73
2022/05/22 18:01:47;;;;;;;6.82;1.90;;;;;;;15.94;57.41;99136.13;8198703;28;20062;-73
2022/05/22 18:05:50;;;;;;;6.97;1.90;;;;;;;15.72;58.30;99134.69;8201347;28;20059;-72
2022/05/22 18:10:00;;;;;;;4.90;1.90;;;;;;;15.53;59.25;99132.56;8201221;28;20059;-72
2022/05/22 18:18:21;;;;;;;6.25;2.00;;;;;;;15.13;60.94;99134.28;8201981;29;20550;-73
2022/05/22 18:22:27;;;;;;;5.00;2.15;;;;;;;14.91;61.40;99132.78;8202165;28;20054;-72
2022/05/22 18:26:29;;;;;;;4.32;1.75;;;;;;;14.83;62.02;99141.03;8152534;29;20054;-72
2022/05/22 18:30:31;;;;;;;6.72;1.98;;;;;;;14.73;62.53;99140.31;8201730;28;20055;-73
2022/05/22 18:34:34;;;;;;;6.68;2.17;;;;;;;14.63;63.22;99127.16;8199355;28;20043;-74
2022/05/22 18:38:37;;;;;;;4.97;2.15;;;;;;;14.53;64.21;99127.56;8199221;28;20055;-72
2022/05/22 18:42:50;;;;;;;7.47;2.20;;;;;;;14.48;64.83;99141.38;8200613;28;20062;-72
2022/05/22 18:46:51;;;;;;;7.63;1.90;;;;;;;14.45;64.75;99147.44;8199450;28;20055;-72
2022/05/22 18:50:53;;;;;;;3.83;1.90;;;;;;;14.38;65.27;99147.22;8198792;28;20466;-73
2022/05/22 18:54:54;;;;;;;9.45;2.22;;;;;;;14.27;65.48;99146.00;8186717;28;20052;-73
2022/05/22 18:58:57;;;;;;;4.38;1.90;;;;;;;14.13;65.91;99156.31;8188543;28;20150;-73
2022/05/22 19:03:00;;;;;;;5.00;2.35;;;;;;;13.96;66.70;99158.00;8187022;28;20055;-73
2022/05/22 19:07:03;;;;;;;3.85;2.28;;;;;;;13.83;67.21;99164.50;8186223;28;20051;-73
2022/05/22 19:11:06;;;;;;;5.30;2.35;;;;;;;13.69;67.74;99163.94;8219467;28;20066;-72
2022/05/22 19:15:10;;;;;;;5.28;1.95;;;;;;;13.60;68.43;99168.59;8203241;28;20043;-73
2022/05/22 19:19:12;;;;;;;4.55;2.42;;;;;;;13.56;69.00;99164.97;8173988;28;20074;-73
2022/05/22 19:23:15;;;;;;;6.78;2.70;;;;;;;13.55;69.26;99179.63;8160796;28;20051;-73
2022/05/22 19:27:19;;;;;;;6.20;2.75;;;;;;;13.52;69.60;99174.88;8191443;28;20566;-72
2022/05/22 19:31:23;;;;;;;5.05;2.30;;;;;;;13.45;70.02;99177.28;8183942;28;20517;-71
2022/05/22 19:35:24;;;;;;;8.60;2.85;;;;;;;13.33;70.39;99177.16;8197963;28;20046;-72
2022/05/22 19:39:29;;;;;;;3.75;2.30;;;;;;;13.25;70.79;99180.72;8191739;28;20138;-72
2022/05/22 19:48:10;;;;;;;6.38;2.72;;;;;;;12.99;71.57;99178.84;8193064;28;20050;-73
2022/05/22 19:52:11;;;;;;;5.50;2.83;;;;;;;12.95;71.95;99177.91;8178563;29;20056;-72
2022/05/22 20:00:36;;;;;;;9.15;2.85;;;;;;;12.84;72.29;99171.22;8182153;28;20047;-72
2022/05/22 20:04:40;;;;;;;4.23;2.70;;;;;;;12.74;72.58;99171.56;8187219;28;20511;-72